createdAt,value
2018-09-24T00:01:27.332Z,99334.53
2018-09-24T00:03:53.844Z,99341.09
2018-09-24T00:06:20.339Z,99345.03
2018-09-24T00:08:48.062Z,99353.41
2018-09-24T00:11:14.570Z,99355.25
2018-09-24T00:13:41.091Z,99360.10
2018-09-24T00:16:07.924Z,99366.67
2018-09-24T00:18:35.610Z,99375.93
2018-09-24T00:21:02.091Z,99365.09
2018-09-24T00:23:28.592Z,99370.78
2018-09-24T00:25:55.496Z,99379.17
2018-09-24T00:28:22.000Z,99383.63
2018-09-24T00:30:48.489Z,99387.64
2018-09-24T00:33:15.007Z,99387.72
2018-09-24T00:35:41.821Z,99387.33
2018-09-24T00:38:08.296Z,99392.58
2018-09-24T00:40:35.152Z,99401.31
2018-09-24T00:43:01.663Z,99400.96
2018-09-24T00:45:28.706Z,99399.65
2018-09-24T00:47:55.185Z,99401.03
2018-09-24T00:50:21.690Z,99416.33
2018-09-24T00:52:48.669Z,99424.22
2018-09-24T00:55:15.141Z,99420.34
2018-09-24T00:57:41.625Z,99429.97
2018-09-24T01:00:08.122Z,99427.41
2018-09-24T01:02:35.050Z,99433.09
2018-09-24T01:05:01.549Z,99441.47
2018-09-24T01:07:28.044Z,99442.00
2018-09-24T01:09:54.569Z,99448.47
2018-09-24T01:12:21.402Z,99452.42
2018-09-24T01:14:47.898Z,99455.05
2018-09-24T01:17:15.526Z,99459.98
2018-09-24T01:19:42.394Z,99458.28
2018-09-24T01:22:09.555Z,99461.80
2018-09-24T01:24:36.057Z,99464.91
2018-09-24T01:27:02.549Z,99473.23
2018-09-24T01:29:29.043Z,99475.05
2018-09-24T01:31:55.888Z,99491.27
2018-09-24T01:34:22.360Z,99492.58
2018-09-24T01:36:51.698Z,99501.77
2018-09-24T01:39:18.170Z,99507.90
2018-09-24T01:41:45.108Z,99518.02
2018-09-24T01:44:11.619Z,99524.17
2018-09-24T01:46:38.130Z,99521.55
2018-09-24T01:49:04.630Z,99520.70
2018-09-24T01:51:31.444Z,99515.94
2018-09-24T01:53:57.933Z,99521.63
2018-09-24T01:56:24.468Z,99526.44
2018-09-24T01:58:50.947Z,99532.62
2018-09-24T02:01:17.809Z,99540.91
2018-09-24T02:03:44.281Z,99544.91
2018-09-24T02:06:10.772Z,99546.59
2018-09-24T02:08:37.500Z,99542.23
2018-09-24T02:11:07.835Z,99550.09
2018-09-24T02:13:34.407Z,99553.97
2018-09-24T02:25:27.792Z,99572.33
2018-09-24T02:29:44.391Z,99566.65
2018-09-24T02:32:11.229Z,99568.33
2018-09-24T02:34:37.884Z,99578.39
2018-09-24T02:37:04.417Z,99576.74
2018-09-24T02:39:33.919Z,99572.38
2018-09-24T02:42:00.810Z,99578.12
2018-09-24T02:44:27.297Z,99581.13
2018-09-24T03:06:57.170Z,99617.66
2018-09-24T03:09:23.868Z,99619.37
2018-09-24T03:11:50.381Z,99632.05
2018-09-24T03:14:17.213Z,99630.29
2018-09-24T03:16:44.507Z,99635.10
2018-09-24T03:19:10.986Z,99632.05
2018-09-24T03:21:37.456Z,99630.78
2018-09-24T03:24:04.413Z,99636.90
2018-09-24T03:26:31.269Z,99649.56
2018-09-24T03:28:57.778Z,99647.39
2018-09-24T03:31:24.260Z,99650.06
2018-09-24T03:33:51.677Z,99654.97
2018-09-24T03:36:18.145Z,99650.99
2018-09-24T03:38:45.635Z,99656.67
2018-09-24T03:41:15.150Z,99660.16
2018-09-24T03:43:41.973Z,99667.59
2018-09-24T03:46:08.433Z,99661.03
2018-09-24T03:51:26.487Z,99657.59
2018-09-24T03:53:52.989Z,99656.29
2018-09-24T04:12:52.011Z,99684.01
2018-09-24T04:15:18.777Z,99687.12
2018-09-24T04:17:45.249Z,99689.73
2018-09-24T04:20:11.777Z,99698.91
2018-09-24T04:22:38.253Z,99696.28
2018-09-24T04:25:05.218Z,99701.09
2018-09-24T04:27:31.730Z,99703.36
2018-09-24T04:29:58.209Z,99707.30
2018-09-24T04:32:24.672Z,99706.91
2018-09-24T04:34:51.605Z,99713.02
2018-09-24T04:37:18.117Z,99706.38
2018-09-24T04:39:44.617Z,99715.16
2018-09-24T04:42:11.549Z,99714.29
2018-09-24T04:44:38.020Z,99718.27
2018-09-24T04:47:04.521Z,99720.01
2018-09-24T04:49:31.457Z,99727.05
2018-09-24T04:51:57.937Z,99728.41
2018-09-24T04:54:24.457Z,99733.20
2018-09-24T04:56:51.474Z,99747.13
2018-09-24T05:44:26.655Z,99800.92
2018-09-24T05:46:53.325Z,99806.56
2018-09-24T05:49:20.363Z,99810.53
2018-09-24T05:51:47.051Z,99804.77
2018-09-24T05:59:33.846Z,99820.89
2018-09-24T06:02:02.733Z,99825.69
2018-09-24T06:04:30.861Z,99836.17
2018-09-24T06:06:57.362Z,99830.45
2018-09-24T06:09:24.151Z,99831.30
2018-09-24T06:11:50.649Z,99835.22
2018-09-24T06:14:17.205Z,99845.62
2018-09-24T06:18:02.533Z,99844.70
2018-09-24T06:20:29.037Z,99859.56
2018-09-24T06:22:55.528Z,99858.20
2018-09-24T06:27:17.597Z,99867.30
2018-09-24T06:29:44.085Z,99865.51
2018-09-24T06:32:11.216Z,99879.88
2018-09-24T06:34:37.854Z,99891.16
2018-09-24T06:37:04.357Z,99884.13
2018-09-24T06:39:31.298Z,99887.53
2018-09-24T06:41:57.798Z,99897.98
2018-09-24T06:44:24.281Z,99903.23
2018-09-24T06:58:29.549Z,99912.98
2018-09-24T07:00:56.900Z,99920.37
2018-09-24T07:03:24.007Z,99922.46
2018-09-24T07:05:50.556Z,99921.50
2018-09-24T07:08:17.029Z,99920.95
2018-09-24T07:10:45.310Z,99922.19
2018-09-24T07:13:13.220Z,99925.59
2018-09-24T07:15:39.710Z,99928.06
2018-09-24T07:18:06.964Z,99928.74
2018-09-24T07:25:58.669Z,99954.58
2018-09-24T07:28:26.991Z,99952.28
2018-09-24T07:30:53.608Z,99958.73
2018-09-24T08:05:37.948Z,100006.41
2018-09-24T08:08:04.866Z,100005.95
2018-09-24T08:10:35.106Z,100013.17
2018-09-24T08:13:01.788Z,100030.77
2018-09-24T08:15:32.372Z,100019.11
2018-09-24T08:17:59.680Z,100038.45
2018-09-24T08:20:26.338Z,100035.44
2018-09-24T08:22:54.035Z,100038.05
2018-09-24T08:25:21.158Z,100054.91
2018-09-24T08:27:47.781Z,100038.33
2018-09-24T08:30:14.295Z,100041.64
2018-09-24T08:51:02.779Z,100057.47
2018-09-24T08:53:29.658Z,100059.77
2018-09-24T08:55:56.180Z,100061.09
2018-09-24T08:58:22.698Z,100066.36
2018-09-24T09:00:49.516Z,100069.88
2018-09-24T09:03:16.061Z,100076.56
2018-09-24T09:05:42.569Z,100084.45
2018-09-24T09:08:09.616Z,100071.50
2018-09-24T09:10:36.122Z,100065.64
2018-09-24T09:13:02.960Z,100078.84
2018-09-24T09:15:30.430Z,100070.31
2018-09-24T09:17:57.006Z,100067.78
2018-09-24T09:20:23.826Z,100072.70
2018-09-24T09:22:52.069Z,100063.36
2018-09-24T09:25:18.761Z,100068.55
2018-09-24T09:27:45.828Z,100070.75
2018-09-24T09:30:13.245Z,100074.16
2018-09-24T10:00:05.699Z,100096.14
2018-09-24T10:26:18.561Z,100093.87
2018-09-24T10:28:45.188Z,100081.44
2018-09-24T10:31:12.024Z,100091.80
2018-09-24T10:33:38.518Z,100093.78
2018-09-24T10:36:06.029Z,100100.80
2018-09-24T10:38:32.945Z,100090.34
2018-09-24T10:40:59.430Z,100096.20
2018-09-24T10:43:25.907Z,100101.56
2018-09-24T10:45:54.344Z,100086.98
2018-09-24T10:48:20.953Z,100095.32
2018-09-24T10:50:47.434Z,100110.16
2018-09-24T10:53:14.483Z,100109.67
2018-09-24T10:55:42.679Z,100091.78
2018-09-24T10:59:38.724Z,100113.12
2018-09-24T11:02:05.477Z,100103.91
2018-09-24T11:37:29.817Z,100122.97
2018-09-24T11:39:56.499Z,100109.78
2018-09-24T11:49:26.453Z,100125.56
2018-09-24T12:27:50.409Z,100101.91
2018-09-24T12:30:17.447Z,100091.97
2018-09-24T12:50:56.336Z,100139.83
2018-09-24T12:53:23.484Z,100135.66
2018-09-24T12:55:50.447Z,100154.02
2018-09-24T12:58:17.440Z,100157.70
2018-09-24T13:00:44.960Z,100156.73
2018-09-24T13:03:12.025Z,100171.69
2018-09-24T13:05:39.553Z,100165.34
2018-09-24T13:21:52.372Z,100173.14
2018-09-24T13:24:19.510Z,100169.93
2018-09-24T13:26:46.334Z,100165.82
2018-09-24T13:29:13.822Z,100150.83
2018-09-24T13:31:43.377Z,100162.18
2018-09-24T13:34:11.268Z,100139.03
2018-09-24T13:36:38.715Z,100153.64
2018-09-24T13:39:05.264Z,100146.72
2018-09-24T13:41:34.324Z,100145.37
2018-09-24T13:44:00.995Z,100143.47
2018-09-24T13:46:27.615Z,100153.49
2018-09-24T13:48:54.464Z,100142.30
2018-09-24T13:51:21.044Z,100143.67
2018-09-24T13:53:47.532Z,100144.89
2018-09-24T13:56:17.402Z,100137.83
2018-09-24T14:13:21.695Z,100140.26
2018-09-24T14:15:50.448Z,100150.12
2018-09-24T14:18:17.536Z,100128.56
2018-09-24T14:20:44.616Z,100139.57
2018-09-24T14:23:11.145Z,100141.70
2018-09-24T14:25:38.415Z,100139.85
2018-09-24T14:28:05.024Z,100139.61
2018-09-24T14:30:31.531Z,100152.34
2018-09-24T14:32:58.608Z,100153.48
2018-09-24T14:35:26.087Z,100142.56
2018-09-24T14:37:52.605Z,100155.50
2018-09-24T14:40:19.469Z,100142.19
2018-09-24T14:42:47.370Z,100137.75
2018-09-24T14:45:13.867Z,100133.20
2018-09-24T14:47:41.408Z,100151.73
2018-09-24T14:50:07.892Z,100135.95
2018-09-24T14:52:34.422Z,100140.34
2018-09-24T14:55:01.276Z,100150.30
2018-09-24T14:57:28.012Z,100147.91
2018-09-24T14:59:54.492Z,100140.69
2018-09-24T15:02:23.710Z,100156.73
2018-09-24T15:04:50.231Z,100148.25
2018-09-24T15:07:17.407Z,100140.61
2018-09-24T15:09:44.368Z,100150.14
2018-09-24T15:12:10.852Z,100146.50
2018-09-24T15:14:37.356Z,100139.45
2018-09-24T15:17:04.176Z,100154.10
2018-09-24T15:19:30.753Z,100139.09
2018-09-24T15:34:10.602Z,100145.66
2018-09-24T15:36:39.103Z,100167.60
2018-09-24T15:39:05.874Z,100139.75
2018-09-24T15:44:29.401Z,100162.78
2018-09-24T15:46:58.966Z,100149.31
2018-09-24T15:49:25.612Z,100148.80
2018-09-24T15:51:53.472Z,100146.34
2018-09-24T15:54:19.956Z,100145.70
2018-09-24T15:56:46.594Z,100139.47
2018-09-24T15:59:13.401Z,100133.69
2018-09-24T16:01:39.925Z,100150.66
2018-09-24T16:04:07.687Z,100128.23
2018-09-24T16:06:35.209Z,100153.28
2018-09-24T16:09:02.607Z,100144.64
2018-09-24T16:11:32.159Z,100138.42
2018-09-24T16:14:00.097Z,100143.41
2018-09-24T16:16:27.632Z,100160.66
2018-09-24T16:18:55.687Z,100140.78
2018-09-24T16:21:22.460Z,100138.75
2018-09-24T16:23:51.557Z,100151.96
2018-09-24T16:26:19.698Z,100159.06
2018-09-24T16:28:46.510Z,100153.67
2018-09-24T16:39:47.171Z,100162.89
2018-09-24T16:42:14.598Z,100169.06
2018-09-24T16:44:41.733Z,100181.27
2018-09-24T17:17:03.282Z,100211.83
2018-09-24T17:19:30.071Z,100233.80
2018-09-24T17:25:57.966Z,100248.31
2018-09-24T17:28:24.504Z,100241.02
2018-09-24T17:30:51.240Z,100231.75
2018-09-24T17:33:18.218Z,100235.75
2018-09-24T17:35:45.534Z,100236.23
2018-09-24T17:38:12.892Z,100242.06
2018-09-24T17:59:43.575Z,100261.73
2018-09-24T18:02:11.312Z,100265.97
2018-09-24T18:04:37.799Z,100263.27
2018-09-24T18:07:06.414Z,100265.62
2018-09-24T18:09:32.914Z,100271.04
2018-09-24T18:11:59.427Z,100267.05
2018-09-24T18:14:26.488Z,100274.06
2018-09-24T18:16:52.974Z,100284.69
2018-09-24T18:19:19.453Z,100288.16
2018-09-24T18:21:46.296Z,100283.22
2018-09-24T18:24:12.846Z,100290.34
2018-09-24T18:26:39.386Z,100298.58
2018-09-24T18:29:07.005Z,100307.00
2018-09-24T18:31:35.593Z,100296.53
2018-09-24T18:34:02.927Z,100303.73
2018-09-24T18:36:38.740Z,100313.24
2018-09-24T18:39:11.018Z,100314.07
2018-09-24T18:41:38.931Z,100308.80
2018-09-24T18:44:05.463Z,100307.77
2018-09-24T18:46:34.033Z,100304.13
2018-09-24T18:49:00.789Z,100311.63
2018-09-24T18:51:28.353Z,100313.33
2018-09-24T18:53:54.868Z,100310.22
2018-09-24T18:56:22.679Z,100311.24
2018-09-24T18:58:53.844Z,100317.57
2018-09-24T19:06:26.024Z,100328.14
2018-09-24T19:08:53.153Z,100331.26
2018-09-24T19:11:27.785Z,100333.50
2018-09-24T19:13:47.795Z,100347.40
2018-09-24T19:16:18.831Z,100340.11
2018-09-24T19:18:46.116Z,100341.09
2018-09-24T19:21:13.941Z,100348.62
2018-09-24T19:23:40.499Z,100347.70
2018-09-24T19:26:07.511Z,100350.42
2018-09-24T19:28:36.160Z,100360.10
2018-09-24T19:31:03.453Z,100361.45
2018-09-24T19:33:30.522Z,100359.02
2018-09-24T19:35:57.829Z,100359.94
2018-09-24T19:38:28.889Z,100366.55
2018-09-24T19:40:55.910Z,100366.59
2018-09-24T19:43:22.450Z,100366.67
2018-09-24T19:45:50.101Z,100363.69
2018-09-24T19:48:18.436Z,100362.37
2018-09-24T19:50:46.084Z,100364.64
2018-09-24T19:53:12.558Z,100364.28
2018-09-24T19:55:39.752Z,100366.44
2018-09-24T19:58:06.963Z,100372.61
2018-09-24T20:00:35.704Z,100374.69
2018-09-24T20:03:03.374Z,100382.14
2018-09-24T20:05:29.976Z,100379.14
2018-09-24T20:07:56.639Z,100377.91
2018-09-24T20:10:23.870Z,100379.33
2018-09-24T20:12:51.577Z,100381.59
2018-09-24T20:15:18.068Z,100383.05
2018-09-24T20:20:16.770Z,100384.08
2018-09-24T20:22:44.771Z,100386.71
2018-09-24T20:25:14.969Z,100390.68
2018-09-24T20:27:41.611Z,100389.84
2018-09-24T20:30:10.101Z,100394.66
2018-09-24T21:56:11.253Z,100480.02
2018-09-24T22:02:49.525Z,100482.36
2018-09-24T22:16:39.767Z,100487.91
2018-09-24T22:50:17.748Z,100495.08
2018-09-24T23:18:39.942Z,100515.71
2018-09-24T23:21:06.477Z,100511.79
2018-09-24T23:23:33.067Z,100516.56
2018-09-24T23:28:31.303Z,100516.14
2018-09-24T23:30:57.811Z,100510.86
